sensor_id;sensor_type;location;lat;lon;timestamp;pressure;altitude;pressure_sealevel;temperature;humidity
65754;BME280;69207;47.502;18.940;2023-11-22T00:00:20;97789.91;;;5.20;100.00
65754;BME280;69207;47.502;18.940;2023-11-22T00:01:24;97789.25;;;5.12;100.00
65754;BME280;69207;47.502;18.940;2023-11-22T00:02:29;97790.31;;;5.17;100.00
65754;BME280;69207;47.502;18.940;2023-11-22T00:03:32;97796.63;;;5.19;100.00
65754;BME280;69207;47.502;18.940;2023-11-22T00:04:36;97791.56;;;5.16;100.00
65754;BME280;69207;47.502;18.940;2023-11-22T00:05:39;97789.41;;;5.14;100.00
65754;BME280;69207;47.502;18.940;2023-11-22T00:06:42;97789.38;;;5.22;100.00
65754;BME280;69207;47.502;18.940;2023-11-22T00:07:45;97792.63;;;5.20;100.00
65754;BME280;69207;47.502;18.940;2023-11-22T00:08:49;97796.06;;;5.21;100.00
65754;BME280;69207;47.502;18.940;2023-11-22T00:09:51;97793.69;;;5.25;100.00
65754;BME280;69207;47.502;18.940;2023-11-22T00:10:55;97796.59;;;5.27;100.00
65754;BME280;69207;47.502;18.940;2023-11-22T00:11:59;97800.94;;;5.30;100.00
65754;BME280;69207;47.502;18.940;2023-11-22T00:13:03;97795.69;;;5.24;100.00
65754;BME280;69207;47.502;18.940;2023-11-22T00:14:06;97792.25;;;5.24;100.00
65754;BME280;69207;47.502;18.940;2023-11-22T00:15:09;97800.94;;;5.30;100.00
65754;BME280;69207;47.502;18.940;2023-11-22T00:16:14;97800.94;;;5.30;100.00
65754;BME280;69207;47.502;18.940;2023-11-22T00:17:19;97808.59;;;5.24;100.00
65754;BME280;69207;47.502;18.940;2023-11-22T00:18:22;97810.97;;;5.20;100.00
65754;BME280;69207;47.502;18.940;2023-11-22T00:19:25;97818.59;;;5.21;100.00
65754;BME280;69207;47.502;18.940;2023-11-22T00:20:28;97814.75;;;5.24;100.00
65754;BME280;69207;47.502;18.940;2023-11-22T00:21:32;97819.13;;;5.20;100.00
65754;BME280;69207;47.502;18.940;2023-11-22T00:22:35;97816.25;;;5.18;100.00
65754;BME280;69207;47.502;18.940;2023-11-22T00:23:38;97814.41;;;5.28;100.00
65754;BME280;69207;47.502;18.940;2023-11-22T00:24:42;97808.81;;;5.18;100.00
65754;BME280;69207;47.502;18.940;2023-11-22T00:25:45;97816.62;;;5.14;100.00
65754;BME280;69207;47.502;18.940;2023-11-22T00:26:48;97815.53;;;5.17;100.00
65754;BME280;69207;47.502;18.940;2023-11-22T00:27:52;97814.47;;;5.13;100.00
65754;BME280;69207;47.502;18.940;2023-11-22T00:28:55;97815.53;;;5.17;100.00
65754;BME280;69207;47.502;18.940;2023-11-22T00:29:58;97819.91;;;5.13;100.00
65754;BME280;69207;47.502;18.940;2023-11-22T00:31:02;97820.84;;;5.08;100.00
65754;BME280;69207;47.502;18.940;2023-11-22T00:32:05;97819.22;;;5.04;100.00
65754;BME280;69207;47.502;18.940;2023-11-22T00:33:08;97826.63;;;5.12;100.00
65754;BME280;69207;47.502;18.940;2023-11-22T00:34:12;97821.00;;;5.10;100.00
65754;BME280;69207;47.502;18.940;2023-11-22T00:35:15;97819.56;;;5.09;100.00
65754;BME280;69207;47.502;18.940;2023-11-22T00:36:18;97823.00;;;5.09;100.00
65754;BME280;69207;47.502;18.940;2023-11-22T00:37:21;97816.66;;;5.07;100.00
65754;BME280;69207;47.502;18.940;2023-11-22T00:38:24;97817.59;;;5.01;100.00
65754;BME280;69207;47.502;18.940;2023-11-22T00:39:28;97808.31;;;5.12;100.00
65754;BME280;69207;47.502;18.940;2023-11-22T00:40:31;97807.44;;;5.02;100.00
65754;BME280;69207;47.502;18.940;2023-11-22T00:41:34;97813.44;;;5.00;100.00
65754;BME280;69207;47.502;18.940;2023-11-22T00:42:38;97813.19;;;5.14;100.00
65754;BME280;69207;47.502;18.940;2023-11-22T00:43:42;97807.38;;;5.10;100.00
65754;BME280;69207;47.502;18.940;2023-11-22T00:44:46;97812.84;;;5.10;100.00
65754;BME280;69207;47.502;18.940;2023-11-22T00:45:50;97809.94;;;5.08;100.00
65754;BME280;69207;47.502;18.940;2023-11-22T00:46:53;97812.31;;;5.03;100.00
65754;BME280;69207;47.502;18.940;2023-11-22T00:47:58;97809.09;;;4.97;100.00
65754;BME280;69207;47.502;18.940;2023-11-22T00:49:01;97809.44;;;4.94;100.00
65754;BME280;69207;47.502;18.940;2023-11-22T00:50:05;97813.63;;;4.95;100.00
65754;BME280;69207;47.502;18.940;2023-11-22T00:51:08;97809.25;;;4.99;100.00
65754;BME280;69207;47.502;18.940;2023-11-22T00:52:13;97808.00;;;5.00;100.00
65754;BME280;69207;47.502;18.940;2023-11-22T00:53:16;97811.97;;;4.99;100.00
65754;BME280;69207;47.502;18.940;2023-11-22T00:54:21;97809.09;;;4.97;100.00
65754;BME280;69207;47.502;18.940;2023-11-22T00:55:23;97806.87;;;5.03;100.00
65754;BME280;69207;47.502;18.940;2023-11-22T00:56:27;97811.03;;;5.04;100.00
65754;BME280;69207;47.502;18.940;2023-11-22T00:57:30;97816.66;;;5.07;100.00
65754;BME280;69207;47.502;18.940;2023-11-22T00:58:33;97811.53;;;5.18;100.00
65754;BME280;69207;47.502;18.940;2023-11-22T00:59:36;97818.47;;;5.12;100.00
65754;BME280;69207;47.502;18.940;2023-11-22T01:00:39;97817.53;;;5.17;100.00
65754;BME280;69207;47.502;18.940;2023-11-22T01:01:42;97812.31;;;5.11;100.00
65754;BME280;69207;47.502;18.940;2023-11-22T01:02:46;97811.91;;;5.15;100.00
65754;BME280;69207;47.502;18.940;2023-11-22T01:03:49;97816.59;;;5.22;100.00
65754;BME280;69207;47.502;18.940;2023-11-22T01:04:53;97810.09;;;5.10;100.00
65754;BME280;69207;47.502;18.940;2023-11-22T01:05:56;97802.53;;;5.00;100.00
65754;BME280;69207;47.502;18.940;2023-11-22T01:06:59;97814.69;;;4.99;100.00
65754;BME280;69207;47.502;18.940;2023-11-22T01:08:02;97807.09;;;4.98;100.00
65754;BME280;69207;47.502;18.940;2023-11-22T01:09:05;97806.34;;;4.97;100.00
65754;BME280;69207;47.502;18.940;2023-11-22T01:10:11;97807.59;;;5.04;100.00
65754;BME280;69207;47.502;18.940;2023-11-22T01:11:14;97817.75;;;5.03;100.00
65754;BME280;69207;47.502;18.940;2023-11-22T01:12:18;97819.91;;;5.13;100.00
65754;BME280;69207;47.502;18.940;2023-11-22T01:13:21;97815.91;;;5.14;100.00
65754;BME280;69207;47.502;18.940;2023-11-22T01:14:25;97815.41;;;5.08;100.00
65754;BME280;69207;47.502;18.940;2023-11-22T01:15:31;97815.22;;;5.06;100.00
65754;BME280;69207;47.502;18.940;2023-11-22T01:16:34;97821.41;;;5.06;100.00
65754;BME280;69207;47.502;18.940;2023-11-22T01:17:39;97824.84;;;5.07;100.00
65754;BME280;69207;47.502;18.940;2023-11-22T01:18:42;97826.50;;;5.02;100.00
65754;BME280;69207;47.502;18.940;2023-11-22T01:19:48;97827.06;;;5.00;100.00
65754;BME280;69207;47.502;18.940;2023-11-22T01:20:51;97829.37;;;5.04;100.00
65754;BME280;69207;47.502;18.940;2023-11-22T01:21:54;97825.03;;;5.01;100.00
65754;BME280;69207;47.502;18.940;2023-11-22T01:22:57;97827.56;;;4.99;100.00
65754;BME280;69207;47.502;18.940;2023-11-22T01:24:00;97822.13;;;4.99;100.00
65754;BME280;69207;47.502;18.940;2023-11-22T01:25:05;97832.50;;;5.00;100.00
65754;BME280;69207;47.502;18.940;2023-11-22T01:26:08;97831.78;;;5.00;100.00
65754;BME280;69207;47.502;18.940;2023-11-22T01:27:12;97833.22;;;5.01;100.00
65754;BME280;69207;47.502;18.940;2023-11-22T01:28:16;97836.44;;;5.07;100.00
65754;BME280;69207;47.502;18.940;2023-11-22T01:29:22;97835.19;;;5.08;100.00
65754;BME280;69207;47.502;18.940;2023-11-22T01:30:26;97833.53;;;5.13;100.00
65754;BME280;69207;47.502;18.940;2023-11-22T01:31:31;97832.19;;;5.21;100.00
65754;BME280;69207;47.502;18.940;2023-11-22T01:32:35;97830.03;;;5.20;100.00
65754;BME280;69207;47.502;18.940;2023-11-22T01:33:39;97836.03;;;5.18;100.00
65754;BME280;69207;47.502;18.940;2023-11-22T01:34:42;97839.28;;;5.24;100.00
65754;BME280;69207;47.502;18.940;2023-11-22T01:35:45;97837.28;;;5.25;100.00
65754;BME280;69207;47.502;18.940;2023-11-22T01:36:51;97829.81;;;5.25;100.00
65754;BME280;69207;47.502;18.940;2023-11-22T01:37:54;97833.47;;;5.28;100.00
65754;BME280;69207;47.502;18.940;2023-11-22T01:38:59;97834.28;;;5.38;100.00
65754;BME280;69207;47.502;18.940;2023-11-22T01:40:03;97836.84;;;5.36;100.00
65754;BME280;69207;47.502;18.940;2023-11-22T01:41:07;97835.75;;;5.39;100.00
65754;BME280;69207;47.502;18.940;2023-11-22T01:42:10;97840.50;;;5.39;100.00
65754;BME280;69207;47.502;18.940;2023-11-22T01:43:17;97840.81;;;5.43;100.00
65754;BME280;69207;47.502;18.940;2023-11-22T01:44:21;97839.31;;;5.49;100.00
65754;BME280;69207;47.502;18.940;2023-11-22T01:45:24;97832.25;;;5.46;100.00
65754;BME280;69207;47.502;18.940;2023-11-22T01:46:27;97837.53;;;5.44;100.00
65754;BME280;69207;47.502;18.940;2023-11-22T01:47:31;97836.81;;;5.44;100.00
65754;BME280;69207;47.502;18.940;2023-11-22T01:48:34;97835.16;;;5.48;100.00
65754;BME280;69207;47.502;18.940;2023-11-22T01:49:40;97835.72;;;5.47;100.00
65754;BME280;69207;47.502;18.940;2023-11-22T01:50:43;97839.16;;;5.47;100.00
65754;BME280;69207;47.502;18.940;2023-11-22T01:51:46;97837.88;;;5.48;100.00
65754;BME280;69207;47.502;18.940;2023-11-22T01:52:49;97842.78;;;5.50;100.00
65754;BME280;69207;47.502;18.940;2023-11-22T01:53:54;97840.59;;;5.48;100.00
65754;BME280;69207;47.502;18.940;2023-11-22T01:54:59;97842.03;;;5.49;100.00
65754;BME280;69207;47.502;18.940;2023-11-22T01:56:03;97842.22;;;5.51;100.00
65754;BME280;69207;47.502;18.940;2023-11-22T01:57:06;97835.78;;;5.64;100.00
65754;BME280;69207;47.502;18.940;2023-11-22T01:58:11;97846.13;;;5.66;100.00
65754;BME280;69207;47.502;18.940;2023-11-22T01:59:15;97842.13;;;5.67;100.00
65754;BME280;69207;47.502;18.940;2023-11-22T02:00:19;97844.87;;;5.67;100.00
65754;BME280;69207;47.502;18.940;2023-11-22T02:01:24;97842.13;;;5.67;100.00
65754;BME280;69207;47.502;18.940;2023-11-22T02:02:29;97844.69;;;5.65;100.00
65754;BME280;69207;47.502;18.940;2023-11-22T02:03:33;97855.75;;;5.67;100.00
65754;BME280;69207;47.502;18.940;2023-11-22T02:04:36;97846.13;;;5.66;100.00
65754;BME280;69207;47.502;18.940;2023-11-22T02:05:42;97846.31;;;5.68;100.00
65754;BME280;69207;47.502;18.940;2023-11-22T02:06:47;97848.47;;;5.69;100.00
65754;BME280;69207;47.502;18.940;2023-11-22T02:07:50;97849.19;;;5.70;100.00
65754;BME280;69207;47.502;18.940;2023-11-22T02:08:55;97846.09;;;5.73;100.00
65754;BME280;69207;47.502;18.940;2023-11-22T02:09:58;97842.44;;;5.71;100.00
65754;BME280;69207;47.502;18.940;2023-11-22T02:11:02;97847.88;;;5.78;100.00
65754;BME280;69207;47.502;18.940;2023-11-22T02:12:08;97850.41;;;5.76;100.00
65754;BME280;69207;47.502;18.940;2023-11-22T02:13:12;97858.44;;;5.74;100.00
65754;BME280;69207;47.502;18.940;2023-11-22T02:14:15;97848.97;;;5.75;100.00
65754;BME280;69207;47.502;18.940;2023-11-22T02:15:19;97849.81;;;5.86;100.00
65754;BME280;69207;47.502;18.940;2023-11-22T02:16:22;97851.66;;;5.83;100.00
65754;BME280;69207;47.502;18.940;2023-11-22T02:17:25;97854.38;;;5.83;100.00
65754;BME280;69207;47.502;18.940;2023-11-22T02:18:29;97850.19;;;5.82;100.00
65754;BME280;69207;47.502;18.940;2023-11-22T02:19:32;97853.84;;;5.77;100.00
65754;BME280;69207;47.502;18.940;2023-11-22T02:20:36;97856.59;;;5.77;100.00
65754;BME280;69207;47.502;18.940;2023-11-22T02:21:39;97855.22;;;5.93;100.00
65754;BME280;69207;47.502;18.940;2023-11-22T02:22:44;97851.44;;;5.89;100.00
65754;BME280;69207;47.502;18.940;2023-11-22T02:23:49;97853.81;;;5.85;100.00
65754;BME280;69207;47.502;18.940;2023-11-22T02:24:51;97859.84;;;5.83;100.00
65754;BME280;69207;47.502;18.940;2023-11-22T02:25:54;97855.47;;;5.80;100.00
65754;BME280;69207;47.502;18.940;2023-11-22T02:26:57;97858.22;;;5.80;100.00
65754;BME280;69207;47.502;18.940;2023-11-22T02:28:01;97863.50;;;5.78;100.00
65754;BME280;69207;47.502;18.940;2023-11-22T02:29:05;97859.16;;;5.75;100.00
65754;BME280;69207;47.502;18.940;2023-11-22T02:30:09;97859.53;;;5.71;100.00
65754;BME280;69207;47.502;18.940;2023-11-22T02:31:14;97861.22;;;5.67;100.00
65754;BME280;69207;47.502;18.940;2023-11-22T02:32:17;97857.75;;;5.66;100.00
65754;BME280;69207;47.502;18.940;2023-11-22T02:33:21;97858.31;;;5.65;100.00
65754;BME280;69207;47.502;18.940;2023-11-22T02:34:24;97860.31;;;5.64;100.00
65754;BME280;69207;47.502;18.940;2023-11-22T02:35:28;97858.13;;;5.63;100.00
65754;BME280;69207;47.502;18.940;2023-11-22T02:36:31;97858.13;;;5.63;100.00
65754;BME280;69207;47.502;18.940;2023-11-22T02:37:34;97855.97;;;5.61;100.00
65754;BME280;69207;47.502;18.940;2023-11-22T02:38:38;97861.25;;;5.59;100.00
65754;BME280;69207;47.502;18.940;2023-11-22T02:39:57;97855.62;;;5.57;100.00
65754;BME280;69207;47.502;18.940;2023-11-22T02:41:02;97854.19;;;5.56;100.00
65754;BME280;69207;47.502;18.940;2023-11-22T02:42:07;97858.16;;;5.55;100.00
65754;BME280;69207;47.502;18.940;2023-11-22T02:43:11;97853.13;;;5.51;100.00
65754;BME280;69207;47.502;18.940;2023-11-22T02:44:15;97850.78;;;5.48;100.00
65754;BME280;69207;47.502;18.940;2023-11-22T02:45:28;97859.34;;;5.44;100.00
65754;BME280;69207;47.502;18.940;2023-11-22T02:46:31;97864.03;;;5.44;100.00
65754;BME280;69207;47.502;18.940;2023-11-22T02:47:35;97862.19;;;5.54;100.00
65754;BME280;69207;47.502;18.940;2023-11-22T02:48:39;97866.91;;;5.53;100.00
65754;BME280;69207;47.502;18.940;2023-11-22T02:49:43;97871.28;;;5.49;100.00
65754;BME280;69207;47.502;18.940;2023-11-22T02:50:47;97870.41;;;5.46;100.00
65754;BME280;69207;47.502;18.940;2023-11-22T02:51:51;97869.69;;;5.46;100.00
65754;BME280;69207;47.502;18.940;2023-11-22T02:52:55;97868.75;;;5.51;100.00
65754;BME280;69207;47.502;18.940;2023-11-22T02:53:58;97875.81;;;5.54;100.00
65754;BME280;69207;47.502;18.940;2023-11-22T02:55:01;97880.28;;;5.67;100.00
65754;BME280;69207;47.502;18.940;2023-11-22T02:56:04;97887.56;;;5.64;100.00
65754;BME280;69207;47.502;18.940;2023-11-22T02:57:08;97886.06;;;5.71;100.00
65754;BME280;69207;47.502;18.940;2023-11-22T02:58:11;97887.34;;;5.70;100.00
65754;BME280;69207;47.502;18.940;2023-11-22T02:59:15;97892.56;;;5.83;100.00
65754;BME280;69207;47.502;18.940;2023-11-22T03:00:19;97888.97;;;5.73;100.00
65754;BME280;69207;47.502;18.940;2023-11-22T03:01:22;97893.50;;;5.70;100.00
65754;BME280;69207;47.502;18.940;2023-11-22T03:02:25;97898.00;;;5.83;100.00
65754;BME280;69207;47.502;18.940;2023-11-22T03:03:29;97896.53;;;5.82;100.00
65754;BME280;69207;47.502;18.940;2023-11-22T03:04:32;97889.13;;;5.75;100.00
65754;BME280;69207;47.502;18.940;2023-11-22T03:05:36;97899.16;;;5.72;100.00
65754;BME280;69207;47.502;18.940;2023-11-22T03:06:43;97895.88;;;5.74;100.00
65754;BME280;69207;47.502;18.940;2023-11-22T03:07:46;97903.69;;;5.70;100.00
65754;BME280;69207;47.502;18.940;2023-11-22T03:08:49;97900.09;;;5.67;100.00
65754;BME280;69207;47.502;18.940;2023-11-22T03:09:53;97904.25;;;5.68;100.00
65754;BME280;69207;47.502;18.940;2023-11-22T03:10:56;97903.19;;;5.64;100.00
65754;BME280;69207;47.502;18.940;2023-11-22T03:11:59;97907.19;;;5.63;100.00
65754;BME280;69207;47.502;18.940;2023-11-22T03:13:02;97907.75;;;5.61;100.00
65754;BME280;69207;47.502;18.940;2023-11-22T03:14:06;97904.28;;;5.61;100.00
65754;BME280;69207;47.502;18.940;2023-11-22T03:15:10;97903.41;;;5.58;100.00
65754;BME280;69207;47.502;18.940;2023-11-22T03:16:14;97904.69;;;5.57;100.00
65754;BME280;69207;47.502;18.940;2023-11-22T03:17:17;97905.25;;;5.55;100.00
65754;BME280;69207;47.502;18.940;2023-11-22T03:18:21;97919.41;;;5.54;100.00
65754;BME280;69207;47.502;18.940;2023-11-22T03:19:24;97912.44;;;5.68;100.00
65754;BME280;69207;47.502;18.940;2023-11-22T03:20:27;97912.59;;;5.70;100.00
65754;BME280;69207;47.502;18.940;2023-11-22T03:21:30;97912.25;;;5.66;100.00
65754;BME280;69207;47.502;18.940;2023-11-22T03:22:33;97907.69;;;5.69;100.00
65754;BME280;69207;47.502;18.940;2023-11-22T03:23:38;97914.59;;;5.70;100.00
65754;BME280;69207;47.502;18.940;2023-11-22T03:24:43;97910.44;;;5.69;100.00
65754;BME280;69207;47.502;18.940;2023-11-22T03:25:46;97916.59;;;5.69;100.00
65754;BME280;69207;47.502;18.940;2023-11-22T03:26:49;97913.00;;;5.67;100.00
65754;BME280;69207;47.502;18.940;2023-11-22T03:27:53;97919.16;;;5.67;100.00
65754;BME280;69207;47.502;18.940;2023-11-22T03:28:56;97920.75;;;5.78;100.00
65754;BME280;69207;47.502;18.940;2023-11-22T03:29:59;97921.78;;;5.82;100.00
65754;BME280;69207;47.502;18.940;2023-11-22T03:31:03;97917.25;;;5.85;100.00
65754;BME280;69207;47.502;18.940;2023-11-22T03:32:08;97914.50;;;5.93;100.00
65754;BME280;69207;47.502;18.940;2023-11-22T03:33:11;97923.13;;;6.06;100.00
65754;BME280;69207;47.502;18.940;2023-11-22T03:34:14;97917.19;;;6.00;100.00
65754;BME280;69207;47.502;18.940;2023-11-22T03:35:17;97925.03;;;5.96;100.00
65754;BME280;69207;47.502;18.940;2023-11-22T03:36:21;97922.63;;;6.00;100.00
65754;BME280;69207;47.502;18.940;2023-11-22T03:37:25;97921.84;;;6.07;100.00
65754;BME280;69207;47.502;18.940;2023-11-22T03:38:29;97923.28;;;6.08;100.00
65754;BME280;69207;47.502;18.940;2023-11-22T03:39:32;97926.97;;;6.03;100.00
65754;BME280;69207;47.502;18.940;2023-11-22T03:40:35;97925.38;;;6.00;100.00
65754;BME280;69207;47.502;18.940;2023-11-22T03:41:38;97933.84;;;6.04;100.00
65754;BME280;69207;47.502;18.940;2023-11-22T03:42:42;97928.37;;;6.12;100.00
65754;BME280;69207;47.502;18.940;2023-11-22T03:43:45;97927.09;;;6.13;100.00
65754;BME280;69207;47.502;18.940;2023-11-22T03:44:49;97925.25;;;6.16;100.00
65754;BME280;69207;47.502;18.940;2023-11-22T03:45:53;97927.94;;;6.23;100.00
65754;BME280;69207;47.502;18.940;2023-11-22T03:46:56;97929.88;;;6.30;100.00
65754;BME280;69207;47.502;18.940;2023-11-22T03:47:59;97931.16;;;6.29;100.00
65754;BME280;69207;47.502;18.940;2023-11-22T03:49:03;97936.22;;;6.33;100.00
65754;BME280;69207;47.502;18.940;2023-11-22T03:50:07;97937.50;;;6.32;100.00
65754;BME280;69207;47.502;18.940;2023-11-22T03:51:10;97936.03;;;6.31;100.00
65754;BME280;69207;47.502;18.940;2023-11-22T03:52:14;97937.50;;;6.32;100.00
65754;BME280;69207;47.502;18.940;2023-11-22T03:53:17;97942.41;;;6.33;100.00
65754;BME280;69207;47.502;18.940;2023-11-22T03:54:21;97944.22;;;6.31;100.00
65754;BME280;69207;47.502;18.940;2023-11-22T03:55:24;97944.22;;;6.31;100.00
65754;BME280;69207;47.502;18.940;2023-11-22T03:56:28;97947.69;;;6.31;100.00
65754;BME280;69207;47.502;18.940;2023-11-22T03:57:31;97937.84;;;6.36;100.00
65754;BME280;69207;47.502;18.940;2023-11-22T03:58:34;97941.28;;;6.37;100.00
65754;BME280;69207;47.502;18.940;2023-11-22T03:59:40;97946.34;;;6.40;100.00
65754;BME280;69207;47.502;18.940;2023-11-22T04:00:44;97941.63;;;6.41;100.00
65754;BME280;69207;47.502;18.940;2023-11-22T04:01:47;97945.34;;;6.53;100.00
65754;BME280;69207;47.502;18.940;2023-11-22T04:02:50;97954.09;;;6.51;100.00
65754;BME280;69207;47.502;18.940;2023-11-22T04:03:53;97948.44;;;6.49;100.00
65754;BME280;69207;47.502;18.940;2023-11-22T04:04:56;97951.59;;;6.46;100.00
65754;BME280;69207;47.502;18.940;2023-11-22T04:05:59;97948.28;;;6.47;100.00
65754;BME280;69207;47.502;18.940;2023-11-22T04:07:03;97950.31;;;6.47;100.00
65754;BME280;69207;47.502;18.940;2023-11-22T04:08:06;97949.91;;;6.50;100.00
65754;BME280;69207;47.502;18.940;2023-11-22T04:09:11;97949.41;;;6.44;100.00
65754;BME280;69207;47.502;18.940;2023-11-22T04:10:20;97949.25;;;6.42;100.00
65754;BME280;69207;47.502;18.940;2023-11-22T04:11:24;97953.44;;;6.60;100.00
65754;BME280;69207;47.502;18.940;2023-11-22T04:12:27;97945.94;;;6.69;100.00
65754;BME280;69207;47.502;18.940;2023-11-22T04:13:30;97950.72;;;6.60;100.00
65754;BME280;69207;47.502;18.940;2023-11-22T04:14:34;97950.06;;;6.52;100.00
65754;BME280;69207;47.502;18.940;2023-11-22T04:15:37;97953.91;;;6.49;100.00
65754;BME280;69207;47.502;18.940;2023-11-22T04:16:41;97962.84;;;6.50;100.00
65754;BME280;69207;47.502;18.940;2023-11-22T04:17:44;97960.66;;;6.48;100.00
65754;BME280;69207;47.502;18.940;2023-11-22T04:18:48;97952.22;;;6.54;100.00
65754;BME280;69207;47.502;18.940;2023-11-22T04:19:51;97955.88;;;6.56;100.00
65754;BME280;69207;47.502;18.940;2023-11-22T04:20:55;97956.25;;;6.53;100.00
65754;BME280;69207;47.502;18.940;2023-11-22T04:22:01;97949.13;;;6.57;100.00
65754;BME280;69207;47.502;18.940;2023-11-22T04:23:04;97963.00;;;6.52;100.00
65754;BME280;69207;47.502;18.940;2023-11-22T04:24:07;97960.59;;;6.56;100.00
65754;BME280;69207;47.502;18.940;2023-11-22T04:25:10;97962.28;;;6.51;100.00
65754;BME280;69207;47.502;18.940;2023-11-22T04:26:16;97961.94;;;6.47;100.00
65754;BME280;69207;47.502;18.940;2023-11-22T04:27:19;97959.78;;;6.46;100.00
65754;BME280;69207;47.502;18.940;2023-11-22T04:28:22;97959.94;;;6.48;100.00
65754;BME280;69207;47.502;18.940;2023-11-22T04:29:25;97961.94;;;6.47;100.00
65754;BME280;69207;47.502;18.940;2023-11-22T04:30:28;97959.37;;;6.49;100.00
65754;BME280;69207;47.502;18.940;2023-11-22T04:31:32;97965.94;;;6.46;100.00
65754;BME280;69207;47.502;18.940;2023-11-22T04:32:35;97967.00;;;6.51;100.00
65754;BME280;69207;47.502;18.940;2023-11-22T04:33:39;97963.00;;;6.52;100.00
65754;BME280;69207;47.502;18.940;2023-11-22T04:34:42;97963.38;;;6.48;100.00
65754;BME280;69207;47.502;18.940;2023-11-22T04:35:45;97959.37;;;6.49;100.00
65754;BME280;69207;47.502;18.940;2023-11-22T04:36:49;97963.78;;;6.45;100.00
65754;BME280;69207;47.502;18.940;2023-11-22T04:37:52;97967.88;;;6.53;100.00
65754;BME280;69207;47.502;18.940;2023-11-22T04:38:55;97961.16;;;6.54;100.00
65754;BME280;69207;47.502;18.940;2023-11-22T04:40:00;97962.22;;;6.59;100.00
65754;BME280;69207;47.502;18.940;2023-11-22T04:41:04;97974.53;;;6.68;100.00
65754;BME280;69207;47.502;18.940;2023-11-22T04:42:07;97974.03;;;6.61;100.00
65754;BME280;69207;47.502;18.940;2023-11-22T04:43:10;97971.19;;;6.52;100.00
65754;BME280;69207;47.502;18.940;2023-11-22T04:44:13;97977.59;;;6.47;100.00
65754;BME280;69207;47.502;18.940;2023-11-22T04:45:16;97975.25;;;6.43;100.00
65754;BME280;69207;47.502;18.940;2023-11-22T04:46:19;97975.97;;;6.44;100.00
65754;BME280;69207;47.502;18.940;2023-11-22T04:47:22;97971.25;;;6.44;100.00
65754;BME280;69207;47.502;18.940;2023-11-22T04:48:25;97977.38;;;6.52;100.00
65754;BME280;69207;47.502;18.940;2023-11-22T04:49:29;97978.25;;;6.55;100.00
65754;BME280;69207;47.502;18.940;2023-11-22T04:50:32;97978.75;;;6.61;100.00
65754;BME280;69207;47.502;18.940;2023-11-22T04:51:35;97983.81;;;6.65;100.00
65754;BME280;69207;47.502;18.940;2023-11-22T04:52:38;97983.69;;;6.55;100.00
65754;BME280;69207;47.502;18.940;2023-11-22T04:53:42;97990.06;;;6.57;100.00
65754;BME280;69207;47.502;18.940;2023-11-22T04:54:46;97993.91;;;6.54;100.00
65754;BME280;69207;47.502;18.940;2023-11-22T04:55:50;97988.13;;;6.50;100.00
65754;BME280;69207;47.502;18.940;2023-11-22T04:56:53;97987.44;;;6.42;100.00
65754;BME280;69207;47.502;18.940;2023-11-22T04:57:56;97988.72;;;6.41;100.00
65754;BME280;69207;47.502;18.940;2023-11-22T04:58:59;97985.66;;;6.37;100.00
65754;BME280;69207;47.502;18.940;2023-11-22T05:00:03;97989.59;;;6.44;100.00
65754;BME280;69207;47.502;18.940;2023-11-22T05:01:08;97985.28;;;6.41;100.00
65754;BME280;69207;47.502;18.940;2023-11-22T05:02:12;97992.78;;;6.32;100.00
65754;BME280;69207;47.502;18.940;2023-11-22T05:03:16;97991.75;;;6.28;100.00
65754;BME280;69207;47.502;18.940;2023-11-22T05:04:19;97991.22;;;6.22;100.00
65754;BME280;69207;47.502;18.940;2023-11-22T05:05:22;97995.06;;;6.19;100.00
65754;BME280;69207;47.502;18.940;2023-11-22T05:06:26;97994.00;;;6.14;100.00
65754;BME280;69207;47.502;18.940;2023-11-22T05:07:30;97992.38;;;6.11;100.00
65754;BME280;69207;47.502;18.940;2023-11-22T05:08:33;97988.41;;;6.04;100.00
65754;BME280;69207;47.502;18.940;2023-11-22T05:09:37;97993.69;;;6.02;100.00
65754;BME280;69207;47.502;18.940;2023-11-22T05:10:40;97992.06;;;5.99;100.00
65754;BME280;69207;47.502;18.940;2023-11-22T05:11:44;98000.09;;;5.97;100.00
65754;BME280;69207;47.502;18.940;2023-11-22T05:12:50;98002.66;;;5.95;100.00
65754;BME280;69207;47.502;18.940;2023-11-22T05:13:53;98005.75;;;5.92;100.00
65754;BME280;69207;47.502;18.940;2023-11-22T05:14:56;98008.81;;;5.88;100.00
65754;BME280;69207;47.502;18.940;2023-11-22T05:15:59;98008.50;;;5.84;100.00
65754;BME280;69207;47.502;18.940;2023-11-22T05:17:04;98006.69;;;5.79;100.00
65754;BME280;69207;47.502;18.940;2023-11-22T05:18:07;98013.22;;;5.76;100.00
65754;BME280;69207;47.502;18.940;2023-11-22T05:19:10;98009.63;;;5.73;100.00
65754;BME280;69207;47.502;18.940;2023-11-22T05:20:13;98008.91;;;5.73;100.00
65754;BME280;69207;47.502;18.940;2023-11-22T05:21:16;98014.00;;;5.69;100.00
65754;BME280;69207;47.502;18.940;2023-11-22T05:22:19;98013.94;;;5.92;100.00
65754;BME280;69207;47.502;18.940;2023-11-22T05:23:22;98011.37;;;5.86;100.00
65754;BME280;69207;47.502;18.940;2023-11-22T05:24:26;98023.78;;;5.79;100.00
65754;BME280;69207;47.502;18.940;2023-11-22T05:25:29;98026.50;;;5.72;100.00
65754;BME280;69207;47.502;18.940;2023-11-22T05:26:32;98022.66;;;5.82;100.00
65754;BME280;69207;47.502;18.940;2023-11-22T05:27:35;98023.91;;;5.89;100.00
65754;BME280;69207;47.502;18.940;2023-11-22T05:28:38;98022.50;;;5.80;100.00
65754;BME280;69207;47.502;18.940;2023-11-22T05:29:41;98020.84;;;5.85;100.00
65754;BME280;69207;47.502;18.940;2023-11-22T05:30:56;98019.19;;;5.90;100.00
65754;BME280;69207;47.502;18.940;2023-11-22T05:32:00;98022.28;;;5.86;100.00
65754;BME280;69207;47.502;18.940;2023-11-22T05:33:03;98016.16;;;5.78;100.00